createdAt,value
2023-01-05T05:16:38.303Z,1.60
2023-01-05T05:19:06.663Z,1.70
2023-01-05T05:21:33.198Z,1.58
2023-01-05T05:23:59.722Z,1.05
2023-01-05T05:26:26.790Z,1.33
2023-01-05T05:28:54.293Z,2.08
2023-01-05T05:31:20.793Z,0.90
2023-01-05T05:33:47.299Z,0.90
2023-01-05T05:36:33.607Z,1.60
2023-01-05T05:39:00.340Z,1.33
2023-01-05T05:41:27.187Z,1.30
2023-01-05T05:43:53.983Z,1.70
2023-01-05T05:46:20.583Z,1.35
2023-01-05T05:48:50.064Z,1.08
2023-01-05T05:51:16.594Z,1.67
2023-01-05T05:53:43.331Z,1.55
2023-01-05T05:56:09.877Z,1.58
2023-01-05T05:58:36.336Z,1.08
2023-01-05T06:01:02.897Z,1.17
2023-01-05T06:03:29.500Z,1.65
2023-01-05T06:05:55.969Z,0.93
2023-01-05T06:08:24.051Z,1.50
2023-01-05T06:10:50.930Z,0.95
2023-01-05T06:13:17.841Z,1.92
2023-01-05T06:15:44.428Z,1.90
2023-01-05T06:18:10.886Z,1.88
2023-01-05T06:20:37.473Z,1.58
2023-01-05T06:23:04.411Z,1.77
2023-01-05T06:25:31.010Z,1.02
2023-01-05T06:27:57.582Z,1.85
2023-01-05T06:30:24.185Z,1.45
2023-01-05T06:32:50.666Z,2.20
2023-01-05T06:35:17.541Z,1.52
2023-01-05T06:37:44.321Z,1.77
2023-01-05T06:40:13.458Z,1.70
2023-01-05T06:42:40.784Z,1.92
2023-01-05T06:45:13.212Z,2.03
2023-01-05T06:47:40.139Z,1.00
2023-01-05T06:50:07.165Z,1.98
2023-01-05T06:52:36.756Z,1.40
2023-01-05T06:55:04.573Z,3.10
2023-01-05T06:57:36.601Z,1.52
2023-01-05T07:00:09.024Z,1.90
2023-01-05T07:02:38.949Z,1.65
2023-01-05T07:05:06.421Z,1.85
2023-01-05T07:07:33.494Z,1.90
2023-01-05T07:10:00.232Z,1.15
2023-01-05T07:12:26.984Z,2.08
2023-01-05T07:14:57.472Z,1.63
2023-01-05T07:17:24.987Z,1.83
2023-01-05T07:19:51.595Z,2.00
2023-01-05T07:22:18.136Z,1.60
2023-01-05T07:24:44.735Z,1.30
2023-01-05T07:27:12.231Z,1.50
2023-01-05T07:29:38.831Z,1.48
2023-01-05T07:32:05.734Z,1.65
2023-01-05T07:34:32.349Z,1.08
2023-01-05T07:36:58.875Z,1.52
2023-01-05T07:39:25.513Z,1.40
2023-01-05T07:42:00.952Z,1.63
2023-01-05T07:44:27.590Z,2.05
2023-01-05T07:46:54.140Z,1.60
2023-01-05T07:49:49.967Z,2.10
2023-01-05T07:52:21.391Z,1.52
2023-01-05T07:54:51.202Z,1.38
2023-01-05T07:57:17.954Z,1.35
2023-01-05T07:59:44.943Z,1.23
2023-01-05T08:02:12.261Z,1.98
2023-01-05T08:04:39.188Z,1.10
2023-01-05T08:07:11.167Z,1.33
2023-01-05T08:09:57.445Z,1.50
2023-01-05T08:12:24.003Z,1.63
2023-01-05T08:14:50.464Z,1.23
2023-01-05T08:17:17.154Z,1.33
2023-01-05T08:19:43.658Z,1.80
2023-01-05T08:22:10.191Z,1.17
2023-01-05T08:24:36.714Z,1.55
2023-01-05T08:27:04.086Z,1.33
2023-01-05T08:29:31.122Z,1.25
2023-01-05T08:31:57.653Z,1.20
2023-01-05T08:34:25.819Z,2.13
2023-01-05T08:36:55.288Z,1.52
2023-01-05T08:39:21.839Z,1.23
2023-01-05T08:41:48.568Z,1.10
2023-01-05T08:44:15.602Z,1.27
2023-01-05T08:46:42.178Z,1.20
2023-01-05T08:49:09.758Z,1.92
2023-01-05T08:51:37.417Z,1.30
2023-01-05T08:54:04.239Z,1.02
2023-01-05T08:56:38.093Z,1.15
2023-01-05T08:59:05.818Z,1.20
2023-01-05T09:01:32.620Z,1.25
2023-01-05T09:03:59.186Z,1.77
2023-01-05T09:06:25.796Z,1.05
2023-01-05T09:08:52.305Z,0.95
2023-01-05T09:11:22.072Z,1.45
2023-01-05T09:13:54.116Z,1.52
2023-01-05T09:19:10.866Z,1.92
2023-01-05T09:21:39.506Z,2.55
2023-01-05T09:24:07.528Z,1.58
2023-01-05T09:26:34.269Z,1.23
2023-01-05T09:29:00.974Z,1.73
2023-01-05T09:31:27.779Z,1.00
2023-01-05T09:33:54.500Z,1.92
2023-01-05T09:36:21.030Z,1.05
2023-01-05T09:38:54.387Z,1.20
2023-01-05T09:41:22.992Z,1.48
2023-01-05T09:43:54.642Z,2.25
2023-01-05T09:46:25.269Z,1.40
2023-01-05T09:48:55.701Z,1.42
2023-01-05T09:51:22.419Z,2.17
2023-01-05T09:53:49.278Z,2.10
2023-01-05T09:59:36.351Z,2.05
2023-01-05T10:02:37.452Z,2.10
2023-01-05T10:05:06.024Z,1.58
2023-01-05T10:07:53.600Z,1.35
2023-01-05T10:14:53.128Z,1.67
2023-01-05T10:17:43.555Z,1.90
2023-01-05T10:20:46.731Z,1.40
2023-01-05T10:23:26.399Z,0.95
2023-01-05T10:36:00.719Z,1.92
2023-01-05T10:41:39.979Z,1.80
2023-01-05T10:44:58.387Z,2.05
2023-01-05T10:47:26.146Z,1.10
2023-01-05T10:49:54.462Z,1.20
2023-01-05T10:52:22.813Z,1.75
2023-01-05T10:55:31.248Z,1.55
2023-01-05T10:58:27.467Z,2.00
2023-01-05T11:01:44.416Z,1.92
2023-01-05T11:08:32.257Z,2.88
2023-01-05T11:11:04.314Z,2.05
2023-01-05T11:14:05.525Z,1.20
2023-01-05T11:16:35.786Z,2.33
2023-01-05T11:19:12.602Z,2.90
2023-01-05T11:21:41.793Z,2.13
2023-01-05T11:25:14.775Z,2.97
2023-01-05T11:29:08.310Z,2.33
2023-01-05T11:31:53.601Z,1.92
2023-01-05T11:34:39.429Z,2.70
2023-01-05T11:37:10.144Z,2.90
2023-01-05T11:43:27.912Z,2.42
2023-01-05T11:46:07.024Z,2.08
2023-01-05T11:48:42.101Z,2.13
2023-01-05T11:51:34.457Z,2.22
2023-01-05T11:54:34.999Z,2.00
2023-01-05T11:58:01.252Z,1.98
2023-01-05T12:01:21.614Z,1.95
2023-01-05T12:04:19.172Z,2.22
2023-01-05T12:07:40.783Z,1.52
2023-01-05T12:10:49.679Z,1.70
2023-01-05T12:14:14.332Z,1.83
2023-01-05T12:17:34.513Z,1.77
2023-01-05T12:20:33.201Z,1.90
2023-01-05T12:23:29.111Z,2.90
2023-01-05T12:27:07.728Z,2.58
2023-01-05T12:45:10.440Z,2.80
2023-01-05T12:47:59.478Z,1.92
2023-01-05T12:50:33.869Z,1.92
2023-01-05T12:53:18.083Z,2.15
2023-01-05T12:58:32.256Z,2.53
2023-01-05T13:01:01.060Z,2.25
2023-01-05T13:03:39.655Z,2.45
2023-01-05T13:06:17.982Z,2.00
2023-01-05T13:08:52.070Z,2.17
2023-01-05T13:11:31.099Z,2.75
2023-01-05T13:14:27.303Z,1.80
2023-01-05T13:17:00.858Z,1.63
2023-01-05T13:19:44.726Z,2.00
2023-01-05T13:22:19.934Z,1.63
2023-01-05T13:24:53.001Z,1.92
2023-01-05T13:27:19.588Z,2.30
2023-01-05T13:29:54.315Z,1.50
2023-01-05T13:32:49.331Z,1.83
2023-01-05T13:35:49.094Z,1.98
2023-01-05T13:38:31.314Z,1.85
2023-01-05T13:41:25.936Z,1.73
2023-01-05T13:44:33.820Z,1.85
2023-01-05T13:47:10.401Z,1.77
2023-01-05T13:50:18.390Z,2.03
2023-01-05T13:53:18.389Z,1.67
2023-01-05T13:56:05.918Z,1.83
2023-01-05T13:59:24.406Z,1.67
2023-01-05T14:02:00.700Z,1.83
2023-01-05T14:04:32.760Z,1.85
2023-01-05T14:07:15.743Z,1.58
2023-01-05T14:09:57.269Z,1.40
2023-01-05T14:12:25.623Z,1.52
2023-01-05T14:15:12.363Z,1.50
2023-01-05T14:18:02.321Z,1.95
2023-01-05T14:20:35.327Z,1.20
2023-01-05T14:23:30.557Z,1.73
2023-01-05T14:25:57.860Z,1.88
2023-01-05T14:28:30.936Z,1.60
2023-01-05T14:31:17.533Z,2.03
2023-01-05T14:33:59.510Z,2.55
2023-01-05T14:36:44.499Z,1.55
2023-01-05T14:39:18.157Z,2.17
2023-01-05T14:42:05.594Z,2.08
2023-01-05T14:44:51.927Z,1.15
2023-01-05T14:47:41.270Z,1.73
2023-01-05T14:50:35.101Z,2.35
2023-01-05T14:53:10.145Z,1.58
2023-01-05T14:55:52.165Z,1.95
2023-01-05T14:58:37.037Z,3.05
2023-01-05T15:01:16.860Z,2.30
2023-01-05T15:04:31.579Z,2.25
2023-01-05T15:07:26.472Z,1.95
2023-01-05T15:10:36.799Z,1.88
2023-01-05T15:17:09.689Z,1.65
2023-01-05T15:20:05.302Z,2.20
2023-01-05T15:23:00.563Z,2.35
2023-01-05T15:25:57.847Z,1.55
2023-01-05T15:28:48.856Z,1.67
2023-01-05T15:31:49.624Z,2.75
2023-01-05T15:34:54.179Z,1.85
2023-01-05T15:37:25.330Z,1.85
2023-01-05T15:39:57.583Z,2.22
2023-01-05T15:42:43.839Z,2.08
2023-01-05T15:49:28.950Z,2.15
2023-01-05T15:55:35.715Z,2.03
2023-01-05T15:58:16.187Z,1.55
2023-01-05T16:00:46.344Z,1.88
2023-01-05T16:03:28.501Z,1.45
2023-01-05T16:06:29.052Z,2.00
2023-01-05T16:09:30.053Z,2.50
2023-01-05T16:12:26.483Z,1.80
2023-01-05T16:15:04.671Z,2.22
2023-01-05T16:18:12.115Z,2.95
2023-01-05T16:21:00.532Z,2.95
2023-01-05T16:23:55.854Z,2.95
2023-01-05T16:32:06.001Z,2.42
2023-01-05T16:34:33.166Z,2.73
2023-01-05T16:37:05.248Z,4.60
2023-01-05T16:39:42.580Z,2.28
2023-01-05T16:48:46.937Z,2.15
2023-01-05T16:51:20.070Z,2.20
2023-01-05T16:54:10.069Z,1.87
2023-01-05T16:57:37.222Z,2.97
2023-01-05T17:00:26.235Z,2.42
2023-01-05T17:02:54.477Z,2.25
2023-01-05T17:05:51.320Z,2.05
2023-01-05T17:08:27.999Z,1.88
2023-01-05T17:11:02.749Z,2.10
2023-01-05T17:13:37.336Z,3.10
2023-01-05T17:16:05.647Z,5.40
2023-01-05T17:18:32.417Z,5.13
2023-01-05T17:21:05.478Z,3.92
2023-01-05T17:23:47.245Z,4.13
2023-01-05T17:26:27.357Z,2.58
2023-01-05T17:28:57.695Z,2.50
2023-01-05T17:31:27.541Z,2.35
2023-01-05T17:33:54.419Z,3.05
2023-01-05T17:36:25.336Z,2.25
2023-01-05T17:38:51.891Z,2.70
2023-01-05T17:41:18.582Z,3.05
2023-01-05T17:43:45.667Z,2.22
2023-01-05T17:46:21.558Z,3.33
2023-01-05T17:48:49.029Z,3.05
2023-01-05T17:51:15.902Z,2.75
2023-01-05T17:53:42.454Z,1.92
2023-01-05T17:56:08.961Z,2.10
2023-01-05T17:58:35.639Z,2.65
2023-01-05T18:01:03.878Z,2.63
2023-01-05T18:03:30.743Z,2.42
2023-01-05T18:06:00.458Z,2.95
2023-01-05T18:08:27.104Z,2.72
2023-01-05T18:10:53.813Z,2.17
2023-01-05T18:13:22.600Z,3.45
2023-01-05T18:15:51.654Z,2.60
2023-01-05T18:18:18.657Z,2.50
2023-01-05T18:20:45.226Z,2.55
2023-01-05T18:23:11.895Z,2.65
2023-01-05T18:25:39.594Z,3.10
2023-01-05T18:28:06.473Z,3.17
2023-01-05T18:30:33.323Z,3.45
2023-01-05T18:33:00.782Z,4.32
2023-01-05T18:35:27.653Z,2.28
2023-01-05T18:40:21.596Z,3.00
2023-01-05T18:42:48.194Z,2.40
2023-01-05T18:45:19.486Z,3.03
2023-01-05T18:47:55.737Z,2.75
2023-01-05T18:50:22.256Z,2.72
2023-01-05T18:52:48.875Z,2.53
2023-01-05T18:55:15.501Z,4.05
2023-01-05T18:57:44.857Z,1.95
2023-01-05T19:00:12.378Z,4.22
2023-01-05T19:02:42.876Z,3.97
2023-01-05T19:05:17.781Z,2.08
2023-01-05T19:07:44.454Z,2.72
2023-01-05T19:10:11.066Z,3.00
2023-01-05T19:12:37.611Z,2.80
2023-01-05T19:15:04.529Z,2.47
2023-01-05T19:17:33.707Z,4.90
2023-01-05T19:20:00.338Z,4.85
2023-01-05T19:22:27.144Z,3.08
2023-01-05T19:24:53.921Z,3.05
2023-01-05T19:27:21.744Z,3.38
2023-01-05T19:29:48.461Z,4.57
2023-01-05T19:32:15.112Z,4.20
2023-01-05T19:34:42.615Z,5.28
2023-01-05T19:37:09.245Z,3.25
2023-01-05T19:39:36.858Z,3.38
2023-01-05T19:42:03.817Z,3.00
2023-01-05T19:44:30.730Z,2.88
2023-01-05T19:46:58.248Z,3.05
2023-01-05T19:49:26.633Z,2.67
2023-01-05T19:51:54.104Z,2.30
2023-01-05T19:54:22.773Z,2.20
2023-01-05T19:56:49.739Z,2.63
2023-01-05T19:59:22.902Z,2.63
2023-01-05T20:01:49.614Z,3.47
2023-01-05T20:04:16.320Z,2.58
2023-01-05T20:06:46.182Z,2.22
2023-01-05T20:09:16.358Z,2.78
2023-01-05T20:11:47.777Z,1.63
2023-01-05T20:14:25.732Z,2.10
2023-01-05T20:16:57.691Z,1.65
2023-01-05T20:19:26.875Z,2.90
2023-01-05T20:21:54.826Z,3.08
2023-01-05T20:24:24.730Z,1.88
2023-01-05T20:26:54.074Z,2.35
2023-01-05T20:29:23.025Z,2.08
2023-01-05T20:31:58.667Z,2.35
2023-01-05T20:34:29.777Z,2.00
2023-01-05T20:36:56.576Z,2.30
2023-01-05T20:39:23.280Z,1.63
2023-01-05T20:41:56.930Z,1.98
2023-01-05T20:44:26.610Z,2.35
2023-01-05T20:46:54.453Z,3.10
2023-01-05T20:49:22.534Z,2.47
2023-01-05T20:51:50.047Z,2.88
2023-01-05T20:54:17.199Z,2.90
2023-01-05T20:56:46.344Z,2.38
2023-01-05T20:59:28.959Z,2.70
2023-01-05T21:01:57.480Z,1.80
2023-01-05T21:04:25.575Z,2.47
2023-01-05T21:06:54.481Z,3.92
2023-01-05T21:09:22.867Z,2.50
2023-01-05T21:11:49.538Z,2.33
2023-01-05T21:14:17.473Z,2.17
2023-01-05T21:16:49.975Z,2.50
2023-01-05T21:19:20.054Z,2.22
2023-01-05T21:21:48.417Z,2.05
2023-01-05T21:24:16.744Z,2.40
2023-01-05T21:26:43.885Z,3.00
2023-01-05T21:29:41.201Z,2.20
2023-01-05T21:32:07.816Z,2.88
2023-01-05T21:34:34.584Z,2.55
2023-01-05T21:37:01.113Z,3.38
2023-01-05T21:39:28.695Z,3.92
2023-01-05T21:42:18.253Z,2.97
2023-01-05T21:44:44.799Z,3.42
2023-01-05T21:47:11.676Z,3.47
2023-01-05T21:49:39.045Z,3.65
2023-01-05T21:52:25.152Z,2.83
2023-01-05T21:55:10.721Z,5.03
2023-01-05T21:57:42.399Z,3.78
2023-01-05T22:00:09.692Z,3.10
2023-01-05T22:02:36.302Z,2.85
2023-01-05T22:05:13.187Z,3.10
2023-01-05T22:07:40.074Z,3.17
2023-01-05T22:10:07.052Z,3.58
2023-01-05T22:12:33.671Z,3.63
2023-01-05T22:15:00.477Z,3.10
2023-01-05T22:17:27.238Z,3.08
2023-01-05T22:20:19.181Z,2.55
2023-01-05T22:22:45.852Z,3.08
2023-01-05T22:25:12.390Z,3.17
2023-01-05T22:27:39.137Z,2.58
2023-01-05T22:30:06.521Z,3.40
2023-01-05T22:32:35.247Z,2.55
2023-01-05T22:35:02.075Z,2.90
2023-01-05T22:37:28.665Z,2.53
2023-01-05T22:39:55.353Z,3.65
2023-01-05T22:42:21.856Z,2.80
2023-01-05T22:44:48.333Z,3.30
2023-01-05T22:47:15.029Z,2.50
2023-01-05T22:49:41.625Z,4.35
2023-01-05T22:52:08.178Z,2.92
2023-01-05T22:54:34.798Z,2.22
2023-01-05T22:57:01.397Z,3.20
2023-01-05T22:59:28.740Z,3.20
